Time;durP1;ratioP1;P1;durP2;ratioP2;P2;SDS_P1;SDS_P2;PMS_P1;PMS_P2;Temp;Humidity;BMP_temperature;BMP_pressure;BME280_temperature;BME280_humidity;BME280_pressure;Samples;Min_cycle;Max_cycle;Signal;HPM_P1;HPM_P2
2022/07/27 00:00:50;;;;;;;3.67;0.40;;;;;;;21.74;40.94;100835.00;10446726;28;20223;-79
2022/07/27 00:05:52;;;;;;;5.95;0.98;;;;;;;22.65;38.96;100816.97;10451435;28;20275;-79
2022/07/27 00:10:55;;;;;;;1.48;0.63;;;;;;;22.51;39.41;100820.28;10459295;28;20207;-79
2022/07/27 00:15:57;;;;;;;3.25;0.55;;;;;;;22.41;40.20;100824.53;10468524;28;20281;-78
2022/07/27 00:20:59;;;;;;;4.07;0.68;;;;;;;22.46;39.74;100815.69;10474324;28;20649;-79
2022/07/27 00:26:02;;;;;;;3.13;0.60;;;;;;;22.45;40.00;100824.59;10483507;28;20276;-78
2022/07/27 00:31:04;;;;;;;2.97;0.60;;;;;;;22.24;40.45;100822.91;10486566;28;20277;-79
2022/07/27 00:36:07;;;;;;;3.70;0.50;;;;;;;21.95;41.16;100816.84;10479272;28;20271;-80
2022/07/27 00:41:10;;;;;;;2.42;0.40;;;;;;;21.47;41.99;100830.19;10461617;28;20245;-79
2022/07/27 00:46:12;;;;;;;3.35;0.70;;;;;;;21.91;41.68;100825.28;10456386;28;20696;-79
2022/07/27 00:51:15;;;;;;;2.70;0.65;;;;;;;21.85;42.27;100830.41;10436504;28;20251;-79
2022/07/27 00:56:18;;;;;;;3.43;0.67;;;;;;;21.75;42.13;100825.28;10453495;28;20285;-80
2022/07/27 01:01:20;;;;;;;2.50;0.43;;;;;;;21.89;41.66;100822.81;10462480;28;20183;-79
2022/07/27 01:06:23;;;;;;;2.25;0.40;;;;;;;21.91;41.87;100820.41;10469914;28;20261;-80
2022/07/27 01:11:28;;;;;;;4.25;0.70;;;;;;;21.47;42.50;100836.72;10462883;28;20239;-80
2022/07/27 01:16:30;;;;;;;4.95;0.70;;;;;;;21.54;42.58;100825.50;10465192;28;20223;-80
2022/07/27 01:21:34;;;;;;;2.40;0.55;;;;;;;21.50;42.41;100824.59;10469260;28;20188;-80
2022/07/27 01:26:37;;;;;;;2.75;0.55;;;;;;;21.43;42.26;100821.53;10462980;28;20219;-79
2022/07/27 01:31:39;;;;;;;2.57;0.47;;;;;;;21.49;42.86;100822.13;10459196;28;20251;-79
2022/07/27 01:36:42;;;;;;;1.93;0.50;;;;;;;21.76;42.53;100815.53;10462212;28;20296;-78
2022/07/27 01:41:45;;;;;;;1.83;0.38;;;;;;;21.77;42.84;100817.19;10468182;28;20309;-80
2022/07/27 01:46:48;;;;;;;1.70;0.50;;;;;;;21.46;43.04;100817.16;10443225;28;20231;-80
2022/07/27 01:51:50;;;;;;;3.13;0.52;;;;;;;21.78;42.16;100813.16;10472490;28;20329;-79
2022/07/27 01:56:52;;;;;;;2.67;0.80;;;;;;;21.20;43.74;100821.28;10454004;28;20285;-80
2022/07/27 02:01:54;;;;;;;3.13;0.50;;;;;;;21.14;43.74;100822.75;10417526;28;20200;-80
2022/07/27 02:06:57;;;;;;;2.88;0.50;;;;;;;20.65;45.26;100824.06;10408939;28;20639;-79
2022/07/27 02:17:20;;;;;;;4.17;1.30;;;;;;;20.68;45.66;100820.50;10423436;28;20196;-79
2022/07/27 02:22:22;;;;;;;6.10;1.10;;;;;;;20.82;45.91;100830.31;10439218;28;20585;-80
2022/07/27 02:27:24;;;;;;;2.33;0.50;;;;;;;20.89;45.58;100832.53;10453879;28;20579;-79
2022/07/27 02:32:27;;;;;;;3.35;0.60;;;;;;;21.09;45.23;100819.31;10443152;28;20248;-81
2022/07/27 02:37:29;;;;;;;4.03;0.67;;;;;;;20.83;45.68;100828.28;10464470;28;20188;-80
2022/07/27 02:42:32;;;;;;;5.93;0.87;;;;;;;20.88;45.99;100828.06;10457307;28;20188;-80
2022/07/27 02:47:34;;;;;;;2.83;0.57;;;;;;;20.68;46.69;100823.34;10468976;28;20241;-78
2022/07/27 02:52:36;;;;;;;3.83;1.20;;;;;;;20.04;48.35;100824.09;10475968;28;20216;-80
2022/07/27 02:57:39;;;;;;;3.37;1.00;;;;;;;20.04;48.10;100824.09;10467805;28;20196;-80
2022/07/27 03:02:48;;;;;;;3.97;0.90;;;;;;;20.15;48.27;100819.59;10465009;28;20184;-80
2022/07/27 03:07:50;;;;;;;1.80;0.60;;;;;;;20.22;48.32;100822.69;10469021;28;20236;-80
2022/07/27 03:12:52;;;;;;;5.60;0.87;;;;;;;20.05;48.31;100820.91;10471277;28;20293;-79
2022/07/27 03:17:55;;;;;;;2.97;0.67;;;;;;;19.99;48.27;100822.31;10474073;28;20199;-80
2022/07/27 03:22:57;;;;;;;5.67;0.97;;;;;;;20.22;47.53;100828.38;10452813;28;20214;-78
2022/07/27 03:28:00;;;;;;;6.53;1.03;;;;;;;20.09;48.19;100821.84;10456901;28;20261;-79
2022/07/27 03:33:05;;;;;;;12.57;1.23;;;;;;;19.81;48.94;100826.56;10456499;28;20578;-80
2022/07/27 03:38:07;;;;;;;7.57;1.10;;;;;;;19.68;49.23;100828.53;10438585;28;20207;-80
2022/07/27 03:43:12;;;;;;;12.95;1.67;;;;;;;20.02;48.48;100826.44;10456844;28;20195;-80
2022/07/27 03:48:14;;;;;;;2.77;0.90;;;;;;;19.98;48.92;100832.00;10475437;28;20203;-79
2022/07/27 03:53:17;;;;;;;5.87;1.40;;;;;;;19.96;48.75;100836.41;10476173;28;20277;-80
2022/07/27 03:58:22;;;;;;;4.03;1.07;;;;;;;20.08;48.74;100842.09;10459237;28;20194;-79
2022/07/27 04:03:24;;;;;;;5.17;1.70;;;;;;;20.22;48.26;100836.88;10452423;28;20234;-79
2022/07/27 04:08:26;;;;;;;4.70;1.08;;;;;;;20.24;48.10;100843.00;10465032;28;20319;-79
2022/07/27 04:13:28;;;;;;;4.47;0.90;;;;;;;20.20;48.26;100838.41;10433671;28;20220;-77
2022/07/27 04:18:31;;;;;;;8.00;1.73;;;;;;;20.30;47.53;100840.78;10424924;28;20200;-78
2022/07/27 04:23:33;;;;;;;6.88;2.08;;;;;;;20.07;48.67;100857.47;10474272;28;20277;-80
2022/07/27 04:28:39;;;;;;;6.20;1.70;;;;;;;19.36;49.49;100860.56;10448319;28;20203;-77
2022/07/27 04:33:41;;;;;;;7.37;1.37;;;;;;;20.03;48.54;100859.34;10474389;28;20294;-78
2022/07/27 04:38:44;;;;;;;5.03;1.60;;;;;;;19.36;50.05;100861.41;10456317;28;20208;-77
2022/07/27 04:43:46;;;;;;;4.00;1.30;;;;;;;19.40;49.71;100870.88;10459751;28;20242;-80
2022/07/27 04:48:49;;;;;;;3.47;1.03;;;;;;;20.32;47.65;100870.47;10421071;28;20269;-79
2022/07/27 04:53:52;;;;;;;2.10;1.38;;;;;;;19.78;48.75;100875.50;10453689;28;20277;-80
2022/07/27 04:59:00;;;;;;;1.73;0.98;;;;;;;20.40;47.41;100866.69;10451100;28;20269;-78
2022/07/27 05:04:03;;;;;;;4.55;1.23;;;;;;;20.27;47.68;100867.88;10436992;28;20207;-79
2022/07/27 05:09:06;;;;;;;3.10;1.47;;;;;;;19.91;48.92;100867.84;10459185;28;20628;-79
2022/07/27 05:14:08;;;;;;;7.57;1.37;;;;;;;19.61;49.22;100870.81;10458025;28;20687;-81
2022/07/27 05:19:11;;;;;;;5.43;1.20;;;;;;;19.90;48.41;100883.22;10416499;28;20493;-80
2022/07/27 05:24:14;;;;;;;4.47;1.00;;;;;;;20.10;47.78;100879.47;10440644;28;20247;-81
2022/07/27 05:29:18;;;;;;;5.33;0.90;;;;;;;19.83;47.62;100892.31;10429211;28;20506;-80
2022/07/27 05:34:20;;;;;;;2.97;1.33;;;;;;;20.14;47.63;100886.91;10430117;28;20247;-79
2022/07/27 05:39:23;;;;;;;3.83;0.90;;;;;;;19.93;48.34;100896.72;10448307;28;20231;-80
2022/07/27 05:44:25;;;;;;;5.60;1.00;;;;;;;20.26;47.34;100893.78;10445196;28;20223;-80
2022/07/27 05:49:27;;;;;;;4.90;1.37;;;;;;;20.10;47.72;100903.00;10447027;28;20670;-81
2022/07/27 05:54:30;;;;;;;4.33;0.90;;;;;;;20.31;47.14;100897.22;10468554;28;20239;-81
2022/07/27 05:59:32;;;;;;;5.63;1.10;;;;;;;20.15;47.36;100902.75;10427686;28;20228;-80
2022/07/27 06:04:35;;;;;;;5.63;0.80;;;;;;;19.98;47.63;100913.53;10427789;28;20292;-81
2022/07/27 06:09:37;;;;;;;4.00;0.83;;;;;;;20.09;47.07;100909.03;10433600;28;20223;-80
2022/07/27 06:14:39;;;;;;;3.77;0.90;;;;;;;20.48;46.67;100908.38;10462536;28;20246;-80
2022/07/27 06:19:42;;;;;;;2.97;1.00;;;;;;;20.16;46.86;100910.09;10417917;28;20258;-82
2022/07/27 06:24:44;;;;;;;4.30;1.00;;;;;;;19.87;47.32;100910.28;10424664;28;20990;-82
2022/07/27 06:29:46;;;;;;;1.80;0.50;;;;;;;20.24;46.39;100916.03;10439667;28;20222;-81
2022/07/27 06:34:49;;;;;;;4.53;0.50;;;;;;;20.16;46.82;100917.78;10435594;28;20301;-81
2022/07/27 06:39:52;;;;;;;2.43;0.83;;;;;;;20.51;45.98;100923.88;10393576;28;20223;-81
2022/07/27 06:44:54;;;;;;;5.03;0.80;;;;;;;20.62;45.16;100916.56;10444342;28;20992;-81
2022/07/27 06:49:57;;;;;;;4.67;0.60;;;;;;;20.78;45.30;100917.47;10391981;28;21462;-81
2022/07/27 06:54:59;;;;;;;2.37;0.50;;;;;;;20.71;44.87;100924.94;10380356;28;20318;-81
2022/07/27 07:00:03;;;;;;;3.87;0.50;;;;;;;20.15;46.01;100930.34;10435138;28;20231;-81
2022/07/27 07:05:05;;;;;;;4.55;0.57;;;;;;;20.82;44.07;100920.44;10442901;28;20219;-81
2022/07/27 07:10:08;;;;;;;2.33;0.63;;;;;;;20.55;43.15;100924.84;10446512;28;20273;-81
2022/07/27 07:15:12;;;;;;;1.17;0.30;;;;;;;20.74;43.20;100922.22;10432592;28;20255;-82
2022/07/27 07:20:15;;;;;;;3.70;0.40;;;;;;;20.33;42.79;100922.44;10427936;28;20432;-81
2022/07/27 07:25:17;;;;;;;3.17;0.70;;;;;;;20.92;41.05;100925.63;10433757;28;20242;-83
2022/07/27 07:30:20;;;;;;;3.80;0.30;;;;;;;21.53;39.34;100925.50;10474173;28;20296;-82
2022/07/27 07:35:23;;;;;;;4.83;0.30;;;;;;;21.07;39.51;100922.03;10435498;28;20267;-83
2022/07/27 07:40:25;;;;;;;2.10;0.32;;;;;;;21.47;39.87;100926.94;10426432;28;20192;-83
2022/07/27 07:45:46;;;;;;;1.60;0.25;;;;;;;20.86;39.66;100930.75;10448444;28;20191;-80
2022/07/27 07:50:52;;;;;;;2.40;0.30;;;;;;;22.59;37.79;100934.06;10442885;28;20203;-83
2022/07/27 07:55:55;;;;;;;1.77;0.40;;;;;;;22.71;37.37;100926.66;10458542;28;20239;-83
2022/07/27 08:01:00;;;;;;;2.00;0.20;;;;;;;21.18;40.36;100931.72;10436643;28;20248;-78
2022/07/27 08:06:07;;;;;;;1.83;0.20;;;;;;;20.23;40.27;100931.44;10453735;28;20269;-81
2022/07/27 08:11:09;;;;;;;0.68;0.13;;;;;;;21.13;38.54;100922.63;10416486;28;20219;-81
2022/07/27 08:16:12;;;;;;;0.97;0.17;;;;;;;21.52;39.16;100929.53;10424078;28;20240;-81
2022/07/27 08:21:14;;;;;;;1.40;0.20;;;;;;;22.64;36.08;100933.00;10458009;28;20196;-83
2022/07/27 08:26:17;;;;;;;2.53;0.20;;;;;;;22.42;36.42;100934.47;10456460;28;20215;-81
2022/07/27 08:31:19;;;;;;;1.63;0.20;;;;;;;22.55;35.07;100926.66;10435167;28;20270;-81
2022/07/27 08:36:41;;;;;;;0.68;0.30;;;;;;;22.87;34.41;100919.72;10451880;28;20243;-81
2022/07/27 08:41:44;;;;;;;1.60;0.10;;;;;;;23.54;33.51;100926.13;10430056;28;20203;-79
2022/07/27 08:46:46;;;;;;;1.33;0.25;;;;;;;22.34;35.63;100935.47;10454734;28;20192;-80
2022/07/27 08:51:49;;;;;;;1.63;0.30;;;;;;;22.66;35.67;100936.31;10432557;28;20259;-79
2022/07/27 08:56:51;;;;;;;2.28;0.28;;;;;;;21.43;38.40;100937.38;10455275;28;20301;-79
2022/07/27 09:01:53;;;;;;;3.53;0.32;;;;;;;22.96;35.66;100928.91;10433694;28;20245;-79
2022/07/27 09:06:56;;;;;;;2.05;0.50;;;;;;;21.85;37.44;100935.75;10449926;28;20204;-79
2022/07/27 09:12:07;;;;;;;2.72;0.65;;;;;;;22.52;37.57;100936.78;10451999;28;20223;-80
2022/07/27 09:17:20;;;;;;;5.97;0.30;;;;;;;23.42;35.64;100920.59;10428906;28;20636;-80
2022/07/27 09:22:47;;;;;;;2.13;0.20;;;;;;;23.47;34.43;100934.56;10436556;28;20301;-80
2022/07/27 09:27:55;;;;;;;2.60;0.30;;;;;;;23.51;33.27;100928.91;10438784;28;20242;-80
2022/07/27 09:33:02;;;;;;;1.52;0.20;;;;;;;22.82;32.01;100942.00;10452214;28;20305;-80
2022/07/27 09:38:22;;;;;;;0.68;0.17;;;;;;;23.50;32.33;100939.50;10443011;28;20219;-80
2022/07/27 09:43:24;;;;;;;1.65;0.20;;;;;;;23.61;31.24;100936.91;10449131;28;20219;-82
2022/07/27 09:48:47;;;;;;;1.58;0.20;;;;;;;23.11;30.63;100924.34;10430597;28;20224;-82
2022/07/27 09:53:53;;;;;;;4.50;0.40;;;;;;;23.58;32.00;100929.91;10454595;28;20616;-81
2022/07/27 09:58:58;;;;;;;5.70;0.60;;;;;;;23.74;31.46;100931.84;10455188;28;20196;-80
2022/07/27 10:04:05;;;;;;;1.73;0.30;;;;;;;23.16;32.91;100932.63;10431528;28;20588;-80
2022/07/27 10:09:07;;;;;;;0.73;0.25;;;;;;;23.40;33.15;100934.41;10411828;28;20665;-79
2022/07/27 10:14:11;;;;;;;2.75;0.40;;;;;;;22.25;34.30;100957.63;10431107;28;20231;-80
2022/07/27 10:19:33;;;;;;;1.05;0.20;;;;;;;23.30;31.83;100941.53;10450840;28;20211;-80
2022/07/27 10:24:35;;;;;;;1.02;0.30;;;;;;;23.81;30.54;100943.41;10432020;28;20529;-83
2022/07/27 10:29:38;;;;;;;2.38;0.38;;;;;;;23.07;31.27;100937.72;10450416;28;20192;-82
2022/07/27 10:34:42;;;;;;;1.83;0.40;;;;;;;24.74;29.18;100933.31;10450384;28;20251;-80
2022/07/27 10:39:49;;;;;;;2.72;0.70;;;;;;;24.70;29.78;100929.56;10449852;28;20650;-80
2022/07/27 10:45:02;;;;;;;1.75;0.30;;;;;;;24.07;30.89;100923.53;10449855;28;20275;-80
2022/07/27 10:50:14;;;;;;;0.90;0.40;;;;;;;24.73;28.12;100930.84;10448668;28;20689;-79
2022/07/27 10:55:29;;;;;;;4.10;0.35;;;;;;;25.32;29.24;100924.38;10414622;28;20239;-80
2022/07/27 11:00:49;;;;;;;4.05;0.40;;;;;;;24.82;29.63;100927.69;10445469;28;20678;-79
2022/07/27 11:06:01;;;;;;;1.75;0.20;;;;;;;24.44;29.27;100929.50;10447171;28;20224;-80
2022/07/27 11:11:24;;;;;;;2.42;0.28;;;;;;;25.41;27.97;100924.09;10447176;28;20220;-81
2022/07/27 11:16:28;;;;;;;2.28;0.47;;;;;;;25.33;28.64;100906.00;10450400;28;20261;-79
2022/07/27 11:21:36;;;;;;;1.02;0.30;;;;;;;25.03;28.48;100908.00;10432625;28;20268;-80
2022/07/27 11:26:41;;;;;;;2.50;0.50;;;;;;;22.99;30.69;100921.63;10419359;28;20223;-81
2022/07/27 11:31:45;;;;;;;1.80;0.40;;;;;;;23.61;30.09;100911.19;10435087;28;20228;-81
2022/07/27 11:37:01;;;;;;;1.20;0.22;;;;;;;23.88;29.79;100915.78;10419580;28;20242;-80
2022/07/27 11:42:04;;;;;;;1.67;0.30;;;;;;;23.71;30.29;100912.59;10448662;28;20195;-80
2022/07/27 11:47:16;;;;;;;1.77;0.50;;;;;;;24.93;28.99;100914.38;10414288;28;20222;-79
2022/07/27 11:52:19;;;;;;;1.17;0.30;;;;;;;25.02;28.47;100910.06;10424614;28;20192;-80
2022/07/27 11:57:29;;;;;;;1.15;0.30;;;;;;;24.71;28.44;100907.53;10433428;28;20251;-79
2022/07/27 12:02:32;;;;;;;2.33;0.50;;;;;;;23.50;31.15;100904.41;10450747;28;20282;-79
2022/07/27 12:07:35;;;;;;;3.90;0.50;;;;;;;23.74;29.55;100906.16;10431441;28;20200;-80
2022/07/27 12:12:37;;;;;;;4.40;0.50;;;;;;;23.01;29.77;100904.97;10449757;28;20203;-79
2022/07/27 12:17:42;;;;;;;1.95;0.43;;;;;;;25.86;26.54;100876.38;10412959;28;20684;-79
2022/07/27 12:22:49;;;;;;;2.17;0.60;;;;;;;26.50;26.56;100883.53;10447582;28;20278;-80
2022/07/27 12:27:51;;;;;;;2.03;0.32;;;;;;;25.99;25.73;100872.81;10446340;28;20589;-81
2022/07/27 12:32:54;;;;;;;2.63;0.32;;;;;;;24.68;29.07;100874.78;10448886;28;20300;-78
2022/07/27 12:38:02;;;;;;;3.40;0.70;;;;;;;26.26;25.83;100866.91;10417239;28;20561;-79
2022/07/27 12:44:14;;;;;;;2.03;0.45;;;;;;;21.86;29.50;100873.69;10506263;27;20648;-79
2022/07/27 12:53:23;;;;;;;3.15;0.70;;;;;;;20.72;29.03;100875.69;10483287;27;20622;-80
2022/07/27 12:58:26;;;;;;;1.55;0.57;;;;;;;21.34;28.59;100863.88;10476904;28;20673;-78
2022/07/27 13:08:10;;;;;;;3.53;0.50;;;;;;;22.25;26.12;100849.59;10476936;27;20623;-79
2022/07/27 13:13:13;;;;;;;1.15;0.20;;;;;;;20.83;27.98;100860.78;10488787;28;20187;-78
2022/07/27 13:18:16;;;;;;;2.50;1.05;;;;;;;20.33;27.50;100860.19;10479394;28;20322;-79
2022/07/27 13:23:24;;;;;;;2.97;0.57;;;;;;;20.60;28.27;100862.94;10497092;28;20229;-81
2022/07/27 13:28:27;;;;;;;3.42;0.32;;;;;;;20.74;27.62;100857.38;10453939;28;20316;-81
2022/07/27 13:33:29;;;;;;;4.43;0.52;;;;;;;20.04;27.78;100847.50;10469628;28;20211;-81
2022/07/27 13:38:32;;;;;;;4.05;0.80;;;;;;;20.60;27.49;100858.03;10441928;27;20274;-81
2022/07/27 13:43:34;;;;;;;4.25;0.50;;;;;;;20.51;27.94;100851.00;10465756;28;20674;-81
2022/07/27 13:48:36;;;;;;;1.60;0.40;;;;;;;21.25;26.56;100848.88;10463724;28;20291;-81
2022/07/27 13:53:39;;;;;;;3.55;0.50;;;;;;;21.86;26.13;100836.66;10483713;28;20603;-80
2022/07/27 13:58:42;;;;;;;3.42;0.50;;;;;;;21.29;26.35;100846.88;10457628;28;20192;-80
2022/07/27 14:03:45;;;;;;;2.00;0.30;;;;;;;20.43;26.05;100841.50;10459531;28;20598;-82
2022/07/27 14:08:47;;;;;;;1.65;0.30;;;;;;;20.72;23.36;100843.44;10466655;28;20195;-80
2022/07/27 14:13:50;;;;;;;0.98;0.20;;;;;;;19.91;26.52;100842.44;10464750;28;20223;-81
2022/07/27 14:18:52;;;;;;;2.72;0.63;;;;;;;20.00;28.05;100843.78;10442830;28;20219;-80
2022/07/27 14:23:54;;;;;;;1.17;0.30;;;;;;;20.52;27.67;100855.50;10435537;28;20235;-80
2022/07/27 14:28:58;;;;;;;4.20;0.30;;;;;;;20.18;27.99;100852.63;10452420;28;20554;-80
2022/07/27 14:34:01;;;;;;;3.50;0.30;;;;;;;19.61;28.20;100854.66;10435999;28;20262;-79
2022/07/27 14:39:03;;;;;;;0.80;0.25;;;;;;;20.06;27.45;100850.81;10438578;28;20196;-80
2022/07/27 14:44:06;;;;;;;3.03;0.30;;;;;;;20.56;26.86;100842.88;10468626;28;20300;-81
2022/07/27 14:49:08;;;;;;;4.72;0.68;;;;;;;21.20;26.08;100837.00;10453895;28;20195;-80
2022/07/27 14:54:11;;;;;;;1.85;0.30;;;;;;;20.92;25.48;100838.38;10453150;28;20658;-80
2022/07/27 14:59:13;;;;;;;1.85;0.40;;;;;;;21.06;24.99;100829.91;10448706;28;20567;-81
2022/07/27 15:04:16;;;;;;;2.97;0.70;;;;;;;20.35;27.34;100823.41;10444162;28;20281;-81
2022/07/27 15:09:18;;;;;;;2.25;0.45;;;;;;;20.01;27.46;100818.88;10430740;28;20273;-81
2022/07/27 15:14:23;;;;;;;2.95;0.35;;;;;;;21.18;27.11;100813.63;10434309;28;20277;-83
2022/07/27 15:19:25;;;;;;;1.75;0.50;;;;;;;20.54;27.30;100813.00;10434243;28;20264;-82
2022/07/27 15:24:27;;;;;;;1.88;0.43;;;;;;;20.77;27.38;100817.31;10435523;28;20301;-81
2022/07/27 15:29:30;;;;;;;3.75;0.57;;;;;;;20.98;27.23;100807.28;10451158;28;20200;-81
2022/07/27 15:34:32;;;;;;;4.45;0.70;;;;;;;20.56;27.68;100805.66;10434860;28;20266;-81
2022/07/27 15:39:39;;;;;;;2.65;0.50;;;;;;;20.53;27.65;100803.56;10433343;28;20219;-81
2022/07/27 15:44:41;;;;;;;3.30;0.28;;;;;;;20.57;27.93;100800.72;10429718;28;20239;-82
2022/07/27 15:49:44;;;;;;;2.35;0.50;;;;;;;21.30;26.79;100801.84;10448584;28;20282;-83
2022/07/27 15:54:47;;;;;;;1.27;0.30;;;;;;;21.60;25.87;100791.00;10433087;28;20234;-82
2022/07/27 15:59:49;;;;;;;2.15;0.40;;;;;;;21.14;26.00;100785.75;10465009;28;20300;-80
2022/07/27 16:04:52;;;;;;;2.83;0.63;;;;;;;19.07;28.40;100782.72;10483130;28;20280;-80
2022/07/27 16:09:55;;;;;;;4.80;0.82;;;;;;;19.71;28.52;100776.78;10477410;28;20241;-80
2022/07/27 16:14:57;;;;;;;2.78;0.40;;;;;;;20.30;27.59;100768.56;10488614;28;20222;-82
2022/07/27 16:19:59;;;;;;;1.75;0.40;;;;;;;20.49;26.58;100762.59;10489620;28;20574;-82
2022/07/27 16:25:02;;;;;;;2.38;0.60;;;;;;;20.03;26.69;100770.66;10502111;28;20941;-82
2022/07/27 16:30:05;;;;;;;3.55;0.40;;;;;;;20.40;27.78;100774.41;10490567;28;20633;-82
2022/07/27 16:35:08;;;;;;;5.35;0.63;;;;;;;20.72;27.39;100763.25;10488557;28;20230;-82
2022/07/27 16:40:11;;;;;;;3.75;0.80;;;;;;;20.36;28.22;100770.66;10455708;28;20203;-81
2022/07/27 16:45:14;;;;;;;1.15;0.40;;;;;;;20.55;27.87;100768.81;10456424;28;20235;-83
2022/07/27 16:50:17;;;;;;;2.42;0.95;;;;;;;19.88;28.53;100765.97;10475285;28;20801;-86
2022/07/27 16:55:20;;;;;;;4.00;0.70;;;;;;;20.17;27.91;100770.84;10471276;28;20487;-84
2022/07/27 17:00:25;;;;;;;4.55;1.23;;;;;;;20.31;27.64;100755.84;10490464;28;20292;-87
2022/07/27 17:05:28;;;;;;;2.72;0.40;;;;;;;20.30;27.46;100757.91;10491581;28;20259;-80
2022/07/27 17:10:31;;;;;;;3.53;1.17;;;;;;;20.29;28.17;100764.88;10488074;28;20195;-78
2022/07/27 17:15:34;;;;;;;7.47;0.65;;;;;;;19.82;27.87;100764.66;10487878;28;20222;-82
2022/07/27 17:20:39;;;;;;;3.85;1.83;;;;;;;20.56;26.95;100764.75;10482392;28;20199;-83
2022/07/27 17:25:41;;;;;;;4.03;2.20;;;;;;;20.14;26.58;100765.88;10432329;28;20250;-87
2022/07/27 17:30:43;;;;;;;3.78;1.88;;;;;;;20.21;27.81;100765.16;10491527;28;20538;-81
2022/07/27 17:35:46;;;;;;;1.67;0.40;;;;;;;20.03;27.84;100764.94;10489543;28;20207;-78
2022/07/27 17:40:48;;;;;;;1.58;0.57;;;;;;;20.58;26.88;100756.56;10475358;28;20214;-81
2022/07/27 17:45:50;;;;;;;3.30;0.73;;;;;;;20.14;26.70;100760.16;10480066;28;20311;-79
2022/07/27 17:50:53;;;;;;;4.78;1.38;;;;;;;20.22;27.12;100759.03;10484219;28;20217;-78
2022/07/27 17:55:55;;;;;;;3.08;0.50;;;;;;;19.93;27.54;100760.72;10488927;28;20529;-78
2022/07/27 18:00:58;;;;;;;3.80;0.50;;;;;;;19.90;28.14;100760.69;10480795;28;20191;-79
2022/07/27 18:06:00;;;;;;;3.17;0.40;;;;;;;19.81;27.78;100763.00;10482928;28;20552;-83
2022/07/27 18:11:03;;;;;;;0.82;0.30;;;;;;;19.48;28.37;100758.88;10457527;28;20217;-83
2022/07/27 18:16:10;;;;;;;2.50;1.10;;;;;;;19.47;28.88;100751.50;10488544;28;20237;-82
2022/07/27 18:21:14;;;;;;;4.30;0.52;;;;;;;19.57;29.08;100758.59;10498293;28;20210;-82
2022/07/27 18:26:17;;;;;;;1.20;0.35;;;;;;;19.19;29.54;100766.19;10481915;28;20276;-83
2022/07/27 18:31:20;;;;;;;1.88;0.22;;;;;;;19.21;30.28;100774.38;10461347;28;20649;-83
2022/07/27 18:36:24;;;;;;;3.97;0.32;;;;;;;19.15;29.55;100778.75;10471331;28;20208;-82
2022/07/27 18:41:27;;;;;;;2.60;0.40;;;;;;;19.48;28.91;100784.59;10495437;28;20241;-82
2022/07/27 18:46:29;;;;;;;1.67;0.40;;;;;;;19.92;28.53;100786.84;10475725;28;20243;-82
2022/07/27 18:51:32;;;;;;;2.50;0.65;;;;;;;20.28;28.60;100788.97;10493045;28;20199;-82
2022/07/27 18:56:36;;;;;;;4.90;0.63;;;;;;;19.99;29.70;100786.94;10454099;28;20265;-83
2022/07/27 19:01:40;;;;;;;1.92;0.73;;;;;;;18.92;31.39;100784.47;10445045;28;20233;-82
2022/07/27 19:06:43;;;;;;;2.47;0.68;;;;;;;18.93;32.30;100800.44;10473094;28;20810;-83
2022/07/27 19:11:47;;;;;;;1.48;0.45;;;;;;;18.73;33.31;100799.66;10471841;28;20250;-83
2022/07/27 19:16:50;;;;;;;2.22;0.60;;;;;;;18.02;34.66;100808.81;10437783;28;20249;-80
2022/07/27 19:21:52;;;;;;;1.02;0.35;;;;;;;17.73;34.23;100805.34;10466915;28;20300;-82
2022/07/27 19:26:55;;;;;;;3.45;0.50;;;;;;;18.05;33.69;100806.03;10474945;28;20254;-79
2022/07/27 19:31:57;;;;;;;3.28;0.73;;;;;;;17.69;34.45;100812.19;10491587;28;20960;-80
2022/07/27 19:36:59;;;;;;;4.20;0.52;;;;;;;17.98;34.39;100814.44;10470977;28;20195;-83
2022/07/27 19:42:02;;;;;;;0.82;0.50;;;;;;;18.42;33.61;100814.16;10470865;28;20200;-83
2022/07/27 19:47:06;;;;;;;6.47;0.88;;;;;;;17.99;34.68;100827.50;10471048;28;20258;-83
2022/07/27 19:52:08;;;;;;;1.58;0.60;;;;;;;17.79;35.08;100828.69;10489294;28;20187;-82
2022/07/27 19:57:11;;;;;;;4.90;1.13;;;;;;;17.87;34.80;100837.03;10474975;28;20253;-80
2022/07/27 20:02:15;;;;;;;4.75;0.75;;;;;;;18.01;34.32;100841.38;10491411;28;20199;-79
2022/07/27 20:07:17;;;;;;;3.38;0.35;;;;;;;17.75;35.44;100844.88;10456036;28;20301;-80
2022/07/27 20:12:20;;;;;;;4.05;0.80;;;;;;;17.79;34.84;100846.63;10487955;28;20222;-84
2022/07/27 20:17:22;;;;;;;2.75;0.50;;;;;;;17.56;35.59;100843.63;10491253;28;20246;-81
2022/07/27 20:22:25;;;;;;;3.03;0.63;;;;;;;17.90;35.17;100842.00;10490696;28;20223;-79
2022/07/27 20:27:27;;;;;;;1.10;0.50;;;;;;;17.92;34.98;100845.28;10487315;28;20300;-82
2022/07/27 20:32:29;;;;;;;3.42;0.80;;;;;;;17.78;35.32;100844.16;10488058;28;20251;-84
2022/07/27 20:37:32;;;;;;;5.18;0.77;;;;;;;17.51;36.30;100849.59;10503969;28;20240;-82
2022/07/27 20:42:34;;;;;;;3.50;0.60;;;;;;;17.57;36.01;100851.00;10473617;28;20264;-80
2022/07/27 20:47:41;;;;;;;2.75;0.63;;;;;;;17.17;37.14;100854.06;10491944;28;20251;-82
2022/07/27 20:52:44;;;;;;;4.65;0.57;;;;;;;17.37;36.43;100863.50;10484510;28;20285;-82
2022/07/27 20:57:46;;;;;;;2.47;0.80;;;;;;;17.31;35.95;100859.31;10492474;28;20218;-83
2022/07/27 21:02:49;;;;;;;1.15;0.45;;;;;;;16.90;37.20;100866.34;10473323;28;20235;-83
2022/07/27 21:07:53;;;;;;;2.17;0.60;;;;;;;16.74;37.96;100866.31;10457480;28;20592;-83
2022/07/27 21:12:55;;;;;;;3.37;0.70;;;;;;;16.83;37.69;100872.66;10459201;28;20195;-82
2022/07/27 21:17:58;;;;;;;1.85;0.68;;;;;;;16.27;38.62;100885.28;10450661;28;20695;-83
2022/07/27 21:28:21;;;;;;;4.65;0.65;;;;;;;16.51;38.10;100882.34;10495287;28;20728;-79
2022/07/27 21:33:26;;;;;;;0.75;0.63;;;;;;;16.67;38.11;100886.03;10483288;28;20273;-79
2022/07/27 21:38:28;;;;;;;1.50;0.80;;;;;;;16.67;38.13;100886.03;10499458;28;20227;-79
2022/07/27 21:43:31;;;;;;;1.48;0.50;;;;;;;16.62;38.72;100891.19;10482294;28;20252;-79
2022/07/27 21:48:33;;;;;;;6.23;0.73;;;;;;;16.02;40.21;100893.03;10499316;28;20568;-79
2022/07/27 21:53:36;;;;;;;2.85;0.60;;;;;;;16.37;39.14;100894.13;10482728;28;20199;-79
2022/07/27 21:58:38;;;;;;;2.80;0.77;;;;;;;16.06;39.94;100899.66;10499858;28;20460;-79
2022/07/27 22:03:42;;;;;;;3.05;0.70;;;;;;;16.30;39.01;100893.09;10474679;28;20226;-84
2022/07/27 22:08:45;;;;;;;1.97;0.70;;;;;;;16.10;39.06;100892.91;10494939;28;20307;-79
2022/07/27 22:13:47;;;;;;;2.70;0.30;;;;;;;15.94;38.54;100886.28;10495081;28;20234;-79
2022/07/27 22:18:49;;;;;;;1.83;0.52;;;;;;;15.87;39.41;100897.47;10496749;28;20203;-79
2022/07/27 22:23:52;;;;;;;4.73;0.63;;;;;;;16.00;38.74;100901.94;10498088;28;20191;-78
2022/07/27 22:28:54;;;;;;;5.50;0.60;;;;;;;15.75;39.25;100900.31;10496846;28;20246;-79
2022/07/27 22:33:56;;;;;;;1.35;0.50;;;;;;;15.76;38.76;100901.94;10498342;28;20207;-79
2022/07/27 22:38:58;;;;;;;1.80;0.30;;;;;;;15.36;39.81;100902.69;10488706;28;20242;-79
2022/07/27 22:44:00;;;;;;;2.20;0.20;;;;;;;15.37;39.51;100900.66;10510636;28;20584;-79
2022/07/27 22:49:03;;;;;;;3.50;0.53;;;;;;;15.50;39.59;100896.63;10496794;28;20695;-79
2022/07/27 22:54:05;;;;;;;3.17;0.50;;;;;;;15.72;38.35;100901.88;10513047;28;20222;-78
2022/07/27 22:59:07;;;;;;;1.02;0.40;;;;;;;15.85;37.92;100899.81;10496497;28;20540;-78
2022/07/27 23:04:10;;;;;;;2.03;0.43;;;;;;;16.37;36.99;100907.53;10494952;28;20719;-81
2022/07/27 23:09:13;;;;;;;1.58;0.38;;;;;;;16.24;37.20;100912.44;10496583;28;20211;-79
2022/07/27 23:14:15;;;;;;;3.20;0.60;;;;;;;16.25;37.11;100913.28;10488138;28;20199;-78
2022/07/27 23:19:19;;;;;;;3.40;0.40;;;;;;;16.27;37.03;100913.75;10460562;28;20196;-79
2022/07/27 23:24:21;;;;;;;2.97;0.40;;;;;;;16.09;37.46;100910.31;10493196;28;20260;-78
2022/07/27 23:29:30;;;;;;;2.53;0.50;;;;;;;16.13;37.14;100912.09;10478587;28;20258;-84
2022/07/27 23:34:34;;;;;;;3.00;0.40;;;;;;;15.64;38.33;100919.00;10491644;28;20692;-79